Terminal Aerodrome Forecast
Issued by NWS

Home | Current Version | Previous Version | Text Only | Print | Product List | Glossary Off
Versions: 1 2 3 4 5 6 7 8 9 10 11 12 13 14 15 16 17 18 19 20 21 22 23 24 25 26 27 28 29 30 31 32 33 34 35 36 37 38 39

199
FTUS43 KGRB 270226 AAA
TAFRHI
TAF AMD
KRHI 270226Z 2702/2724 34007KT 6SM BR OVC005
      TEMPO 2706/2710 3SM -DZ BR OVC003
     FM271000 32007KT 3SM -FZRA BR OVC004
      TEMPO 2712/2714 3SM -PL BR
     FM271400 31007KT 2SM -SN BR OVC006
     FM271800 28009G14KT 3SM -RASN BR OVC008
     FM272000 26009G15KT 6SM -RA BR OVC012
     FM272200 27008KT P6SM OVC015=

USA.gov is the U.S. government's official web portal to all federal, state and local government web resources and services.